RYR4964 LIMJ-EBCI
Flight info
| Callsign | RYR4964 |
|---|---|
| Flight time | 1h 22m |
| Altitude | 36000 |
| Route | LAGEN DCT TONDA DCT PIMOT DCT AOSTA DCT ORSUD DCT MOLUS DCT GILIR DCT PENDU DCT IXILU DCT EPL DCT ROUSY DCT BATTY |
| Aircraft | B738/M-SDE2E3FGHIRWXY/LB1 |
Departure
| Time | 2026-04-26 15:27 |
|---|---|
| Airport | Genoa Cristoforo Colombo Airport (LIMJ) |
Arrival
| Time | 2026-04-26 16:50 |
|---|---|
| Airport | Brussels South Charleroi Airport (EBCI) |
| Time | Latitude | Longitude | Altitude | Speed | Heading |
|---|---|---|---|---|---|
| 2026-04-26 14:30 | 44.41597 | 8.85009 | 19 ft | 0 kts | 194° |
| 2026-04-26 15:18 | 44.41614 | 8.85015 | 21 ft | 4 kts | 191° |
| 2026-04-26 15:18 | 44.41640 | 8.85021 | 22 ft | 4 kts | 188° |
| 2026-04-26 15:19 | 44.41666 | 8.85029 | 23 ft | 4 kts | 208° |
| 2026-04-26 15:19 | 44.41676 | 8.85038 | 21 ft | 0 kts | 227° |
| 2026-04-26 15:22 | 44.41666 | 8.85022 | 22 ft | 5 kts | 227° |
| 2026-04-26 15:23 | 44.41629 | 8.84966 | 19 ft | 9 kts | 228° |
| 2026-04-26 15:23 | 44.41587 | 8.84901 | 19 ft | 9 kts | 228° |
| 2026-04-26 15:23 | 44.41549 | 8.84834 | 19 ft | 9 kts | 233° |
| 2026-04-26 15:23 | 44.41513 | 8.84769 | 19 ft | 8 kts | 232° |
| 2026-04-26 15:24 | 44.41474 | 8.84698 | 19 ft | 10 kts | 233° |
| 2026-04-26 15:24 | 44.41416 | 8.84664 | 19 ft | 10 kts | 144° |
| 2026-04-26 15:24 | 44.41390 | 8.84754 | 19 ft | 10 kts | 105° |
| 2026-04-26 15:24 | 44.41372 | 8.84846 | 19 ft | 10 kts | 105° |
| 2026-04-26 15:25 | 44.41355 | 8.84936 | 20 ft | 10 kts | 103° |
| 2026-04-26 15:25 | 44.41344 | 8.85004 | 19 ft | 12 kts | 104° |
| 2026-04-26 15:25 | 44.41312 | 8.85173 | 20 ft | 13 kts | 105° |
| 2026-04-26 15:25 | 44.41262 | 8.85275 | 19 ft | 13 kts | 154° |
| 2026-04-26 15:26 | 44.41176 | 8.85262 | 19 ft | 13 kts | 194° |
| 2026-04-26 15:26 | 44.41096 | 8.85232 | 18 ft | 10 kts | 196° |
| 2026-04-26 15:26 | 44.41037 | 8.85174 | 16 ft | 11 kts | 221° |
| 2026-04-26 15:26 | 44.41018 | 8.85096 | 16 ft | 9 kts | 281° |
| 2026-04-26 15:27 | 44.41040 | 8.84977 | 18 ft | 31 kts | 285° |
| 2026-04-26 15:27 | 44.41169 | 8.84317 | 20 ft | 108 kts | 285° |
| 2026-04-26 15:27 | 44.41422 | 8.83015 | 101 ft | 161 kts | 284° |
| 2026-04-26 15:27 | 44.41731 | 8.81467 | 791 ft | 169 kts | 283° |
| 2026-04-26 15:28 | 44.41910 | 8.79841 | 1481 ft | 178 kts | 259° |
| 2026-04-26 15:28 | 44.41216 | 8.78402 | 2017 ft | 184 kts | 206° |
| 2026-04-26 15:28 | 44.39978 | 8.78038 | 2877 ft | 182 kts | 175° |
| 2026-04-26 15:28 | 44.38774 | 8.78568 | 3613 ft | 186 kts | 151° |
| 2026-04-26 15:29 | 44.37605 | 8.79408 | 4320 ft | 193 kts | 151° |
| 2026-04-26 15:29 | 44.36413 | 8.80274 | 5052 ft | 194 kts | 149° |
| 2026-04-26 15:29 | 44.33766 | 8.81543 | 5889 ft | 228 kts | 188° |
| 2026-04-26 15:30 | 44.31562 | 8.78187 | 6472 ft | 263 kts | 259° |
| 2026-04-26 15:30 | 44.31608 | 8.75602 | 6689 ft | 283 kts | 286° |
| 2026-04-26 15:30 | 44.32625 | 8.73146 | 6856 ft | 308 kts | 317° |
| 2026-04-26 15:31 | 44.34484 | 8.71520 | 7232 ft | 323 kts | 337° |
| 2026-04-26 15:31 | 44.38703 | 8.69177 | 8787 ft | 330 kts | 339° |
| 2026-04-26 15:31 | 44.40849 | 8.67972 | 9559 ft | 335 kts | 338° |
| 2026-04-26 15:32 | 44.43746 | 8.66271 | 10564 ft | 339 kts | 337° |
| 2026-04-26 15:32 | 44.47364 | 8.64053 | 11824 ft | 343 kts | 336° |
| 2026-04-26 15:32 | 44.49559 | 8.62677 | 12597 ft | 346 kts | 336° |
| 2026-04-26 15:33 | 44.51756 | 8.61286 | 13413 ft | 349 kts | 336° |
| 2026-04-26 15:33 | 44.53989 | 8.59864 | 14140 ft | 353 kts | 335° |
| 2026-04-26 15:33 | 44.56241 | 8.58424 | 14811 ft | 359 kts | 335° |
| 2026-04-26 15:33 | 44.58525 | 8.56960 | 15593 ft | 360 kts | 335° |
| 2026-04-26 15:34 | 44.60789 | 8.55507 | 16270 ft | 366 kts | 334° |
| 2026-04-26 15:34 | 44.63144 | 8.53993 | 16974 ft | 370 kts | 334° |
| 2026-04-26 15:34 | 44.65506 | 8.52473 | 17641 ft | 376 kts | 333° |
| 2026-04-26 15:34 | 44.67897 | 8.50933 | 18343 ft | 380 kts | 334° |
| 2026-04-26 15:35 | 44.70318 | 8.49372 | 18925 ft | 384 kts | 334° |
| 2026-04-26 15:35 | 44.72716 | 8.47823 | 19601 ft | 385 kts | 334° |
| 2026-04-26 15:35 | 44.75196 | 8.46224 | 20228 ft | 389 kts | 333° |
| 2026-04-26 15:35 | 44.77668 | 8.44626 | 20790 ft | 394 kts | 333° |
| 2026-04-26 15:36 | 44.80140 | 8.43027 | 21361 ft | 397 kts | 333° |
| 2026-04-26 15:36 | 44.82658 | 8.41396 | 21960 ft | 400 kts | 333° |
| 2026-04-26 15:36 | 44.85198 | 8.39750 | 22529 ft | 404 kts | 333° |
| 2026-04-26 15:36 | 44.87760 | 8.38087 | 23067 ft | 408 kts | 333° |
| 2026-04-26 15:37 | 44.90361 | 8.36398 | 23599 ft | 413 kts | 333° |
| 2026-04-26 15:37 | 44.92978 | 8.34697 | 24074 ft | 415 kts | 333° |
| 2026-04-26 15:37 | 44.95610 | 8.32985 | 24577 ft | 417 kts | 333° |
| 2026-04-26 15:37 | 44.98250 | 8.31266 | 25069 ft | 419 kts | 333° |
| 2026-04-26 15:38 | 45.00904 | 8.29535 | 25529 ft | 421 kts | 333° |
| 2026-04-26 15:38 | 45.03569 | 8.27795 | 25985 ft | 424 kts | 333° |
| 2026-04-26 15:38 | 45.05347 | 8.26634 | 26271 ft | 425 kts | 333° |
| 2026-04-26 15:38 | 45.08040 | 8.24874 | 26732 ft | 428 kts | 333° |
| 2026-04-26 15:39 | 45.10686 | 8.22939 | 27158 ft | 429 kts | 326° |
| 2026-04-26 15:39 | 45.13083 | 8.20423 | 27582 ft | 429 kts | 317° |
| 2026-04-26 15:39 | 45.15296 | 8.17582 | 28007 ft | 431 kts | 316° |
| 2026-04-26 15:39 | 45.16784 | 8.15635 | 28281 ft | 432 kts | 316° |
| 2026-04-26 15:40 | 45.19718 | 8.11784 | 28784 ft | 436 kts | 316° |
| 2026-04-26 15:40 | 45.21960 | 8.08858 | 29145 ft | 439 kts | 315° |
| 2026-04-26 15:40 | 45.24216 | 8.05930 | 29488 ft | 442 kts | 316° |
| 2026-04-26 15:40 | 45.26494 | 8.02985 | 29865 ft | 444 kts | 316° |
| 2026-04-26 15:41 | 45.28781 | 8.00035 | 30312 ft | 443 kts | 316° |
| 2026-04-26 15:41 | 45.31060 | 7.97096 | 30816 ft | 440 kts | 315° |
| 2026-04-26 15:41 | 45.33319 | 7.94180 | 31312 ft | 437 kts | 315° |
| 2026-04-26 15:41 | 45.35564 | 7.91279 | 31774 ft | 436 kts | 315° |
| 2026-04-26 15:42 | 45.37801 | 7.88382 | 32200 ft | 435 kts | 315° |
| 2026-04-26 15:42 | 45.40033 | 7.85488 | 32650 ft | 433 kts | 315° |
| 2026-04-26 15:42 | 45.42251 | 7.82609 | 33103 ft | 431 kts | 314° |
| 2026-04-26 15:42 | 45.44460 | 7.79738 | 33546 ft | 429 kts | 314° |
| 2026-04-26 15:43 | 45.46655 | 7.76883 | 33976 ft | 428 kts | 315° |
| 2026-04-26 15:43 | 45.48862 | 7.74009 | 34266 ft | 429 kts | 315° |
| 2026-04-26 15:43 | 45.53265 | 7.68320 | 35129 ft | 423 kts | 316° |
| 2026-04-26 15:44 | 45.55425 | 7.65577 | 35556 ft | 420 kts | 316° |
| 2026-04-26 15:44 | 45.59808 | 7.60006 | 36032 ft | 423 kts | 316° |
| 2026-04-26 15:44 | 45.62001 | 7.57210 | 36151 ft | 423 kts | 316° |
| 2026-04-26 15:45 | 45.68571 | 7.48796 | 36170 ft | 422 kts | 316° |
| 2026-04-26 15:46 | 45.72933 | 7.43192 | 36059 ft | 420 kts | 316° |
| 2026-04-26 15:46 | 45.75104 | 7.40398 | 36061 ft | 420 kts | 316° |
| 2026-04-26 15:46 | 45.78718 | 7.35743 | 36054 ft | 419 kts | 316° |
| 2026-04-26 15:47 | 45.86591 | 7.27454 | 36077 ft | 421 kts | 323° |
| 2026-04-26 15:48 | 45.91419 | 7.22655 | 36096 ft | 422 kts | 322° |
| 2026-04-26 15:48 | 45.96220 | 7.17780 | 36124 ft | 423 kts | 322° |
| 2026-04-26 15:49 | 46.00994 | 7.12891 | 36113 ft | 424 kts | 322° |
| 2026-04-26 15:49 | 46.05792 | 7.07957 | 36125 ft | 423 kts | 322° |
| 2026-04-26 15:50 | 46.10583 | 7.03024 | 36117 ft | 423 kts | 322° |
| 2026-04-26 15:50 | 46.15364 | 6.98092 | 36120 ft | 423 kts | 322° |
| 2026-04-26 15:51 | 46.20136 | 6.93159 | 36143 ft | 421 kts | 323° |
| 2026-04-26 15:51 | 46.24902 | 6.88219 | 36132 ft | 421 kts | 323° |
| 2026-04-26 15:52 | 46.29664 | 6.83274 | 36146 ft | 421 kts | 323° |
| 2026-04-26 15:52 | 46.34414 | 6.78332 | 36141 ft | 420 kts | 323° |
| 2026-04-26 15:53 | 46.39151 | 6.73391 | 36151 ft | 419 kts | 323° |
| 2026-04-26 15:53 | 46.43857 | 6.68487 | 36133 ft | 419 kts | 324° |
| 2026-04-26 15:54 | 46.48992 | 6.64476 | 36141 ft | 420 kts | 333° |
| 2026-04-26 15:54 | 46.54289 | 6.60859 | 36139 ft | 420 kts | 333° |
| 2026-04-26 15:55 | 46.59572 | 6.57206 | 36136 ft | 421 kts | 333° |
| 2026-04-26 15:55 | 46.64848 | 6.53496 | 36142 ft | 421 kts | 333° |
| 2026-04-26 15:56 | 46.70116 | 6.49764 | 36134 ft | 421 kts | 333° |
| 2026-04-26 15:56 | 46.75379 | 6.46026 | 36134 ft | 421 kts | 333° |
| 2026-04-26 15:57 | 46.80639 | 6.42281 | 36161 ft | 420 kts | 333° |
| 2026-04-26 15:57 | 46.85885 | 6.38541 | 36145 ft | 419 kts | 333° |
| 2026-04-26 15:58 | 46.91119 | 6.34799 | 36143 ft | 418 kts | 333° |
| 2026-04-26 15:58 | 46.96333 | 6.31064 | 36144 ft | 416 kts | 333° |
| 2026-04-26 15:59 | 47.01525 | 6.27337 | 36160 ft | 415 kts | 333° |
| 2026-04-26 15:59 | 47.06705 | 6.23612 | 36153 ft | 414 kts | 333° |
| 2026-04-26 16:00 | 47.11846 | 6.19924 | 36151 ft | 413 kts | 333° |
| 2026-04-26 16:00 | 47.16996 | 6.16226 | 36160 ft | 411 kts | 333° |
| 2026-04-26 16:01 | 47.22127 | 6.12534 | 36158 ft | 410 kts | 333° |
| 2026-04-26 16:01 | 47.27242 | 6.08843 | 36161 ft | 409 kts | 333° |
| 2026-04-26 16:02 | 47.32367 | 6.05219 | 36148 ft | 408 kts | 339° |
| 2026-04-26 16:02 | 47.37884 | 6.03350 | 36150 ft | 409 kts | 354° |
| 2026-04-26 16:03 | 47.43584 | 6.03368 | 36164 ft | 410 kts | 359° |
| 2026-04-26 16:03 | 47.49281 | 6.03559 | 36157 ft | 409 kts | 359° |
| 2026-04-26 16:04 | 47.54980 | 6.03706 | 36159 ft | 410 kts | 359° |
| 2026-04-26 16:04 | 47.60691 | 6.03826 | 36159 ft | 410 kts | 358° |
| 2026-04-26 16:05 | 47.66398 | 6.03943 | 36171 ft | 410 kts | 358° |
| 2026-04-26 16:05 | 47.72076 | 6.04060 | 36160 ft | 411 kts | 358° |
| 2026-04-26 16:06 | 47.77790 | 6.04201 | 36159 ft | 411 kts | 359° |
| 2026-04-26 16:06 | 47.83510 | 6.04384 | 36174 ft | 411 kts | 359° |
| 2026-04-26 16:07 | 47.89229 | 6.04567 | 36178 ft | 411 kts | 359° |
| 2026-04-26 16:07 | 47.94954 | 6.04747 | 36176 ft | 411 kts | 359° |
| 2026-04-26 16:08 | 48.00675 | 6.04926 | 36170 ft | 411 kts | 359° |
| 2026-04-26 16:08 | 48.06395 | 6.05104 | 36176 ft | 411 kts | 359° |
| 2026-04-26 16:09 | 48.12108 | 6.05282 | 36170 ft | 411 kts | 358° |
| 2026-04-26 16:09 | 48.17814 | 6.05461 | 36176 ft | 410 kts | 358° |
| 2026-04-26 16:10 | 48.23473 | 6.05638 | 36187 ft | 409 kts | 358° |
| 2026-04-26 16:10 | 48.29163 | 6.05817 | 36196 ft | 409 kts | 358° |
| 2026-04-26 16:11 | 48.34884 | 6.06021 | 36191 ft | 408 kts | 359° |
| 2026-04-26 16:11 | 48.40531 | 6.06294 | 36188 ft | 408 kts | 359° |
| 2026-04-26 16:12 | 48.46217 | 6.06576 | 36187 ft | 409 kts | 359° |
| 2026-04-26 16:12 | 48.54750 | 6.06989 | 36185 ft | 409 kts | 359° |
| 2026-04-26 16:13 | 48.60441 | 6.07260 | 36174 ft | 409 kts | 359° |
| 2026-04-26 16:13 | 48.66128 | 6.07533 | 36184 ft | 409 kts | 359° |
| 2026-04-26 16:14 | 48.71820 | 6.07806 | 36185 ft | 409 kts | 359° |
| 2026-04-26 16:15 | 48.80313 | 6.08214 | 36186 ft | 409 kts | 359° |
| 2026-04-26 16:15 | 48.85999 | 6.08488 | 36204 ft | 409 kts | 359° |
| 2026-04-26 16:16 | 48.94521 | 6.08900 | 36222 ft | 408 kts | 359° |
| 2026-04-26 16:16 | 49.00206 | 6.09176 | 36215 ft | 408 kts | 359° |
| 2026-04-26 16:17 | 49.05890 | 6.09452 | 36206 ft | 408 kts | 359° |
| 2026-04-26 16:17 | 49.11572 | 6.09729 | 36206 ft | 408 kts | 359° |
| 2026-04-26 16:18 | 49.20093 | 6.10146 | 36207 ft | 408 kts | 359° |
| 2026-04-26 16:19 | 49.28613 | 6.10564 | 36209 ft | 408 kts | 359° |
| 2026-04-26 16:20 | 49.37086 | 6.10981 | 36225 ft | 408 kts | 359° |
| 2026-04-26 16:20 | 49.45584 | 6.11400 | 36213 ft | 407 kts | 359° |
| 2026-04-26 16:21 | 49.51199 | 6.10828 | 36221 ft | 403 kts | 349° |
| 2026-04-26 16:21 | 49.56752 | 6.09540 | 36025 ft | 406 kts | 349° |
| 2026-04-26 16:22 | 49.59555 | 6.08888 | 35557 ft | 406 kts | 349° |
| 2026-04-26 16:22 | 49.62344 | 6.08248 | 35000 ft | 405 kts | 349° |
| 2026-04-26 16:22 | 49.65135 | 6.07615 | 34405 ft | 406 kts | 349° |
| 2026-04-26 16:22 | 49.67933 | 6.06986 | 33737 ft | 407 kts | 349° |
| 2026-04-26 16:23 | 49.70740 | 6.06356 | 33081 ft | 407 kts | 349° |
| 2026-04-26 16:23 | 49.73538 | 6.05730 | 32439 ft | 407 kts | 349° |
| 2026-04-26 16:23 | 49.76335 | 6.05105 | 31795 ft | 407 kts | 349° |
| 2026-04-26 16:23 | 49.79131 | 6.04479 | 31302 ft | 403 kts | 349° |
| 2026-04-26 16:24 | 49.81900 | 6.03859 | 30828 ft | 400 kts | 349° |
| 2026-04-26 16:24 | 49.84630 | 6.03248 | 30373 ft | 395 kts | 349° |
| 2026-04-26 16:24 | 49.87347 | 6.02637 | 29854 ft | 396 kts | 349° |
| 2026-04-26 16:24 | 49.90088 | 6.02019 | 29372 ft | 399 kts | 349° |
| 2026-04-26 16:25 | 49.92830 | 6.01400 | 28880 ft | 395 kts | 349° |
| 2026-04-26 16:25 | 49.95534 | 6.00791 | 28418 ft | 390 kts | 349° |
| 2026-04-26 16:25 | 49.98169 | 6.00197 | 27947 ft | 386 kts | 349° |
| 2026-04-26 16:25 | 50.00852 | 5.99591 | 27472 ft | 383 kts | 349° |
| 2026-04-26 16:26 | 50.03444 | 5.99005 | 27020 ft | 381 kts | 349° |
| 2026-04-26 16:26 | 50.05223 | 5.98601 | 26732 ft | 384 kts | 349° |
| 2026-04-26 16:26 | 50.08740 | 5.97801 | 26099 ft | 385 kts | 349° |
| 2026-04-26 16:26 | 50.11381 | 5.97202 | 25627 ft | 382 kts | 349° |
| 2026-04-26 16:27 | 50.13999 | 5.96607 | 25169 ft | 379 kts | 349° |
| 2026-04-26 16:27 | 50.16600 | 5.96016 | 24706 ft | 376 kts | 349° |
| 2026-04-26 16:27 | 50.18314 | 5.95625 | 24417 ft | 376 kts | 349° |
| 2026-04-26 16:27 | 50.21773 | 5.94836 | 23809 ft | 374 kts | 349° |
| 2026-04-26 16:28 | 50.23477 | 5.94447 | 23450 ft | 374 kts | 349° |
| 2026-04-26 16:28 | 50.26051 | 5.93858 | 22956 ft | 374 kts | 349° |
| 2026-04-26 16:28 | 50.28579 | 5.93280 | 22509 ft | 373 kts | 349° |
| 2026-04-26 16:28 | 50.31135 | 5.92694 | 22049 ft | 370 kts | 349° |
| 2026-04-26 16:29 | 50.33669 | 5.92114 | 21589 ft | 366 kts | 349° |
| 2026-04-26 16:29 | 50.36183 | 5.91537 | 21146 ft | 363 kts | 349° |
| 2026-04-26 16:29 | 50.38672 | 5.90966 | 20720 ft | 360 kts | 349° |
| 2026-04-26 16:29 | 50.41141 | 5.90398 | 20282 ft | 358 kts | 349° |
| 2026-04-26 16:30 | 50.43595 | 5.89832 | 19854 ft | 355 kts | 350° |
| 2026-04-26 16:30 | 50.46037 | 5.89269 | 19413 ft | 354 kts | 350° |
| 2026-04-26 16:30 | 50.48467 | 5.88708 | 18984 ft | 352 kts | 350° |
| 2026-04-26 16:30 | 50.50883 | 5.88150 | 18556 ft | 350 kts | 350° |
| 2026-04-26 16:31 | 50.53287 | 5.87594 | 18074 ft | 348 kts | 350° |
| 2026-04-26 16:31 | 50.55675 | 5.87042 | 17622 ft | 346 kts | 350° |
| 2026-04-26 16:31 | 50.58051 | 5.86491 | 17189 ft | 343 kts | 350° |
| 2026-04-26 16:31 | 50.60394 | 5.85856 | 16760 ft | 340 kts | 342° |
| 2026-04-26 16:32 | 50.62460 | 5.84171 | 16368 ft | 334 kts | 320° |
| 2026-04-26 16:32 | 50.63988 | 5.81454 | 15959 ft | 332 kts | 302° |
| 2026-04-26 16:32 | 50.64930 | 5.78155 | 15558 ft | 333 kts | 285° |
| 2026-04-26 16:32 | 50.65228 | 5.74538 | 15179 ft | 335 kts | 275° |
| 2026-04-26 16:33 | 50.65320 | 5.70863 | 14747 ft | 335 kts | 273° |
| 2026-04-26 16:33 | 50.65370 | 5.67199 | 14333 ft | 333 kts | 272° |
| 2026-04-26 16:33 | 50.65416 | 5.63557 | 13913 ft | 332 kts | 272° |
| 2026-04-26 16:33 | 50.65469 | 5.59939 | 13463 ft | 329 kts | 273° |
| 2026-04-26 16:34 | 50.65528 | 5.56383 | 13051 ft | 327 kts | 272° |
| 2026-04-26 16:34 | 50.65592 | 5.52820 | 12657 ft | 324 kts | 273° |
| 2026-04-26 16:34 | 50.65658 | 5.49288 | 12267 ft | 321 kts | 273° |
| 2026-04-26 16:34 | 50.65725 | 5.45783 | 11870 ft | 319 kts | 273° |
| 2026-04-26 16:35 | 50.65791 | 5.42309 | 11486 ft | 317 kts | 272° |
| 2026-04-26 16:35 | 50.65857 | 5.38825 | 11093 ft | 317 kts | 272° |
| 2026-04-26 16:35 | 50.65923 | 5.35342 | 10722 ft | 318 kts | 273° |
| 2026-04-26 16:35 | 50.65987 | 5.31867 | 10333 ft | 316 kts | 272° |
| 2026-04-26 16:36 | 50.66050 | 5.28417 | 9937 ft | 314 kts | 273° |
| 2026-04-26 16:36 | 50.66111 | 5.24992 | 9516 ft | 312 kts | 273° |
| 2026-04-26 16:36 | 50.66172 | 5.21583 | 9119 ft | 309 kts | 272° |
| 2026-04-26 16:36 | 50.66229 | 5.18205 | 8730 ft | 307 kts | 273° |
| 2026-04-26 16:37 | 50.66108 | 5.14864 | 8338 ft | 308 kts | 256° |
| 2026-04-26 16:37 | 50.65294 | 5.11764 | 8276 ft | 302 kts | 246° |
| 2026-04-26 16:37 | 50.64400 | 5.08718 | 7675 ft | 311 kts | 246° |
| 2026-04-26 16:37 | 50.63499 | 5.05619 | 7305 ft | 309 kts | 246° |
| 2026-04-26 16:38 | 50.62615 | 5.02576 | 7121 ft | 304 kts | 246° |
| 2026-04-26 16:38 | 50.61749 | 4.99594 | 6986 ft | 301 kts | 246° |
| 2026-04-26 16:38 | 50.60877 | 4.96592 | 6858 ft | 303 kts | 246° |
| 2026-04-26 16:38 | 50.59996 | 4.93559 | 6727 ft | 307 kts | 246° |
| 2026-04-26 16:39 | 50.59103 | 4.90491 | 6578 ft | 308 kts | 246° |
| 2026-04-26 16:39 | 50.58214 | 4.87435 | 6433 ft | 307 kts | 246° |
| 2026-04-26 16:39 | 50.57428 | 4.84366 | 6308 ft | 307 kts | 252° |
| 2026-04-26 16:39 | 50.56809 | 4.81111 | 6270 ft | 307 kts | 255° |
| 2026-04-26 16:40 | 50.56254 | 4.77958 | 6268 ft | 299 kts | 255° |
| 2026-04-26 16:40 | 50.55708 | 4.74867 | 6121 ft | 289 kts | 255° |
| 2026-04-26 16:40 | 50.55166 | 4.71848 | 5942 ft | 282 kts | 255° |
| 2026-04-26 16:40 | 50.54631 | 4.68920 | 5803 ft | 277 kts | 254° |
| 2026-04-26 16:41 | 50.54095 | 4.66015 | 5692 ft | 277 kts | 254° |
| 2026-04-26 16:41 | 50.53550 | 4.63099 | 5575 ft | 278 kts | 254° |
| 2026-04-26 16:41 | 50.53002 | 4.60189 | 5442 ft | 279 kts | 254° |
| 2026-04-26 16:41 | 50.52448 | 4.57260 | 5320 ft | 279 kts | 254° |
| 2026-04-26 16:42 | 50.51894 | 4.54331 | 5203 ft | 280 kts | 254° |
| 2026-04-26 16:42 | 50.51336 | 4.51394 | 5073 ft | 281 kts | 253° |
| 2026-04-26 16:42 | 50.50775 | 4.48457 | 4947 ft | 281 kts | 254° |
| 2026-04-26 16:42 | 50.50213 | 4.45512 | 4814 ft | 281 kts | 253° |
| 2026-04-26 16:43 | 50.49651 | 4.42573 | 4658 ft | 282 kts | 254° |
| 2026-04-26 16:43 | 50.49083 | 4.39614 | 4431 ft | 282 kts | 254° |
| 2026-04-26 16:43 | 50.48521 | 4.36685 | 4204 ft | 277 kts | 254° |
| 2026-04-26 16:43 | 50.47975 | 4.33839 | 3964 ft | 267 kts | 255° |
| 2026-04-26 16:44 | 50.47451 | 4.31104 | 3717 ft | 257 kts | 254° |
| 2026-04-26 16:44 | 50.46947 | 4.28498 | 3497 ft | 249 kts | 254° |
| 2026-04-26 16:44 | 50.46448 | 4.25933 | 3247 ft | 242 kts | 254° |
| 2026-04-26 16:44 | 50.45965 | 4.23437 | 3008 ft | 239 kts | 253° |
| 2026-04-26 16:45 | 50.45370 | 4.21002 | 2773 ft | 241 kts | 236° |
| 2026-04-26 16:45 | 50.44090 | 4.19382 | 2600 ft | 238 kts | 199° |
| 2026-04-26 16:45 | 50.42513 | 4.19136 | 2532 ft | 221 kts | 167° |
| 2026-04-26 16:45 | 50.41083 | 4.19850 | 2513 ft | 212 kts | 146° |
| 2026-04-26 16:46 | 50.40202 | 4.21484 | 2498 ft | 186 kts | 100° |
| 2026-04-26 16:46 | 50.40246 | 4.23402 | 2507 ft | 173 kts | 80° |
| 2026-04-26 16:46 | 50.40404 | 4.25288 | 2495 ft | 177 kts | 74° |
| 2026-04-26 16:46 | 50.40801 | 4.27129 | 2507 ft | 181 kts | 67° |
| 2026-04-26 16:47 | 50.41279 | 4.28956 | 2513 ft | 181 kts | 66° |
| 2026-04-26 16:47 | 50.41785 | 4.30761 | 2468 ft | 181 kts | 64° |
| 2026-04-26 16:47 | 50.42304 | 4.32568 | 2231 ft | 181 kts | 64° |
| 2026-04-26 16:47 | 50.42815 | 4.34343 | 2009 ft | 177 kts | 63° |
| 2026-04-26 16:48 | 50.43319 | 4.36085 | 1773 ft | 171 kts | 64° |
| 2026-04-26 16:48 | 50.43794 | 4.37728 | 1538 ft | 161 kts | 64° |
| 2026-04-26 16:48 | 50.44239 | 4.39262 | 1351 ft | 145 kts | 64° |
| 2026-04-26 16:48 | 50.44631 | 4.40619 | 1151 ft | 132 kts | 65° |
| 2026-04-26 16:49 | 50.45026 | 4.41944 | 1003 ft | 138 kts | 60° |
| 2026-04-26 16:49 | 50.45400 | 4.43301 | 814 ft | 132 kts | 64° |
| 2026-04-26 16:49 | 50.45791 | 4.44614 | 620 ft | 133 kts | 64° |
| 2026-04-26 16:49 | 50.46142 | 4.45822 | 594 ft | 102 kts | 65° |
| 2026-04-26 16:50 | 50.46348 | 4.46535 | 589 ft | 41 kts | 65° |
| 2026-04-26 16:50 | 50.46419 | 4.46780 | 593 ft | 22 kts | 65° |
| 2026-04-26 16:50 | 50.46497 | 4.46894 | 593 ft | 11 kts | 357° |
| 2026-04-26 16:50 | 50.46565 | 4.46856 | 593 ft | 10 kts | 336° |
| 2026-04-26 16:51 | 50.46630 | 4.46810 | 591 ft | 8 kts | 335° |
| 2026-04-26 16:51 | 50.46688 | 4.46788 | 588 ft | 10 kts | 18° |
| 2026-04-26 16:51 | 50.46703 | 4.46862 | 589 ft | 8 kts | 89° |
| 2026-04-26 16:51 | 50.46720 | 4.46941 | 588 ft | 8 kts | 66° |
| 2026-04-26 16:52 | 50.46740 | 4.47012 | 587 ft | 3 kts | 65° |
| 2026-04-26 16:52 | 50.46747 | 4.47036 | 587 ft | 4 kts | 65° |
| 2026-04-26 16:52 | 50.46765 | 4.47087 | 587 ft | 4 kts | 49° |
| 2026-04-26 16:52 | 50.46798 | 4.47083 | 585 ft | 7 kts | 333° |
| 2026-04-26 16:53 | 50.46837 | 4.47055 | 584 ft | 5 kts | 335° |
| 2026-04-26 16:53 | 50.46845 | 4.47049 | 584 ft | 2 kts | 335° |
| 2026-04-26 16:53 | 50.46857 | 4.47041 | 584 ft | 0 kts | 335° |